createdAt,value
2022-11-27T00:01:36.259Z,3.95
2022-11-27T00:04:10.417Z,3.89
2022-11-27T00:06:41.016Z,3.94
2022-11-27T00:09:14.393Z,3.96
2022-11-27T00:11:44.092Z,3.92
2022-11-27T00:14:14.758Z,3.89
2022-11-27T00:16:43.705Z,3.87
2022-11-27T00:19:12.816Z,3.88
2022-11-27T00:21:41.254Z,3.91
2022-11-27T00:24:11.846Z,3.96
2022-11-27T00:26:40.395Z,3.95
2022-11-27T00:29:09.976Z,3.94
2022-11-27T00:31:38.276Z,3.91
2022-11-27T00:34:08.586Z,3.95
2022-11-27T00:36:37.995Z,3.97
2022-11-27T00:39:06.806Z,3.95
2022-11-27T00:41:34.960Z,3.95
2022-11-27T00:44:04.580Z,3.95
2022-11-27T00:46:34.774Z,3.96
2022-11-27T00:49:05.239Z,3.89
2022-11-27T00:51:34.130Z,3.80
2022-11-27T00:54:02.295Z,3.78
2022-11-27T00:56:33.038Z,3.80
2022-11-27T00:59:01.775Z,3.87
2022-11-27T01:01:32.677Z,3.91
2022-11-27T01:04:02.661Z,3.93
2022-11-27T01:06:31.653Z,3.90
2022-11-27T01:09:00.465Z,3.91
2022-11-27T01:11:33.040Z,3.88
2022-11-27T01:14:05.874Z,3.89
2022-11-27T01:16:34.554Z,3.89
2022-11-27T01:19:03.814Z,3.90
2022-11-27T01:21:34.523Z,3.94
2022-11-27T01:24:04.274Z,3.96
2022-11-27T01:26:33.029Z,4.01
2022-11-27T01:29:01.700Z,4.01
2022-11-27T01:31:32.915Z,3.96
2022-11-27T01:34:03.688Z,3.91
2022-11-27T01:36:32.969Z,3.91
2022-11-27T01:39:02.192Z,3.93
2022-11-27T01:41:36.082Z,3.91
2022-11-27T01:44:24.366Z,3.94
2022-11-27T01:46:58.913Z,3.94
2022-11-27T01:49:38.201Z,3.91
2022-11-27T01:52:15.041Z,3.91
2022-11-27T01:54:55.723Z,3.90
2022-11-27T01:58:01.197Z,3.88
2022-11-27T02:00:30.050Z,3.87
2022-11-27T02:02:58.670Z,3.82
2022-11-27T02:05:28.714Z,3.87
2022-11-27T02:07:59.295Z,3.84
2022-11-27T02:10:44.589Z,3.83
2022-11-27T02:13:20.811Z,3.86
2022-11-27T02:16:08.204Z,3.74
2022-11-27T02:19:13.820Z,3.73
2022-11-27T02:21:54.954Z,3.64
2022-11-27T02:24:29.532Z,3.68
2022-11-27T02:27:05.775Z,3.66
2022-11-27T02:29:35.844Z,3.67
2022-11-27T02:32:13.381Z,3.70
2022-11-27T02:34:59.455Z,3.70
2022-11-27T02:37:39.251Z,3.64
2022-11-27T02:40:46.944Z,3.57
2022-11-27T02:43:20.717Z,3.63
2022-11-27T02:45:51.697Z,3.60
2022-11-27T02:48:24.869Z,3.59
2022-11-27T02:50:54.309Z,3.53
2022-11-27T02:53:31.087Z,3.53
2022-11-27T02:56:00.569Z,3.55
2022-11-27T02:58:29.859Z,3.55
2022-11-27T03:00:59.586Z,3.54
2022-11-27T03:03:33.190Z,3.53
2022-11-27T03:06:09.229Z,3.52
2022-11-27T03:08:51.199Z,3.61
2022-11-27T03:11:19.514Z,3.63
2022-11-27T03:13:55.623Z,3.64
2022-11-27T03:16:34.840Z,3.66
2022-11-27T03:19:15.685Z,3.70
2022-11-27T03:21:49.212Z,3.72
2022-11-27T03:24:17.687Z,3.77
2022-11-27T03:26:46.427Z,3.81
2022-11-27T03:29:23.138Z,3.82
2022-11-27T03:31:52.034Z,3.88
2022-11-27T03:34:20.148Z,3.89
2022-11-27T03:36:48.422Z,3.89
2022-11-27T03:39:16.917Z,3.93
2022-11-27T03:42:02.987Z,3.92
2022-11-27T03:44:43.461Z,3.94
2022-11-27T03:47:30.013Z,3.91
2022-11-27T03:50:40.092Z,3.91
2022-11-27T03:53:50.605Z,3.90
2022-11-27T03:56:40.652Z,3.99
2022-11-27T03:59:25.333Z,4.01
2022-11-27T04:01:53.909Z,4.03
2022-11-27T04:04:22.493Z,4.04
2022-11-27T04:06:50.806Z,4.03
2022-11-27T04:09:18.909Z,4.04
2022-11-27T04:11:47.570Z,4.04
2022-11-27T04:14:15.983Z,4.04
2022-11-27T04:16:44.150Z,4.04
2022-11-27T04:19:12.654Z,4.05
2022-11-27T04:21:40.784Z,4.01
2022-11-27T04:24:08.852Z,3.99
2022-11-27T04:26:37.270Z,4.02
2022-11-27T04:29:05.351Z,4.03
2022-11-27T04:31:33.694Z,3.98
2022-11-27T04:34:02.333Z,3.95
2022-11-27T04:36:33.530Z,3.90
2022-11-27T04:39:04.604Z,3.85
2022-11-27T04:41:32.806Z,3.86
2022-11-27T04:44:00.894Z,3.90
2022-11-27T04:46:29.274Z,3.85
2022-11-27T04:48:57.722Z,3.84
2022-11-27T04:51:25.702Z,3.81
2022-11-27T04:53:54.066Z,3.86
2022-11-27T04:56:22.683Z,3.86
2022-11-27T04:58:50.749Z,3.82
2022-11-27T05:01:19.519Z,3.86
2022-11-27T05:03:48.587Z,3.89
2022-11-27T05:06:16.788Z,3.89
2022-11-27T05:08:45.803Z,3.91
2022-11-27T05:11:16.282Z,3.92
2022-11-27T05:13:44.937Z,3.86
2022-11-27T05:16:13.347Z,3.90
2022-11-27T05:18:41.755Z,3.84
2022-11-27T05:21:10.063Z,3.87
2022-11-27T05:23:38.578Z,3.86
2022-11-27T05:26:06.780Z,3.88
2022-11-27T05:28:35.184Z,3.85
2022-11-27T05:31:03.338Z,3.89
2022-11-27T05:33:31.734Z,3.76
2022-11-27T05:36:00.126Z,3.79
2022-11-27T05:38:28.238Z,3.86
2022-11-27T05:40:56.298Z,3.90
2022-11-27T05:43:24.652Z,3.89
2022-11-27T05:45:52.874Z,3.89
2022-11-27T05:48:21.408Z,3.91
2022-11-27T05:50:49.769Z,3.91
2022-11-27T05:53:17.916Z,3.94
2022-11-27T05:55:45.895Z,3.97
2022-11-27T05:58:14.459Z,3.95
2022-11-27T06:00:42.643Z,3.94
2022-11-27T06:03:11.061Z,3.92
2022-11-27T06:05:40.401Z,3.95
2022-11-27T06:08:08.979Z,3.98
2022-11-27T06:10:39.819Z,3.98
2022-11-27T06:13:08.032Z,3.96
2022-11-27T06:15:37.863Z,4.00
2022-11-27T06:18:07.394Z,3.99
2022-11-27T06:20:39.537Z,3.92
2022-11-27T06:23:10.837Z,3.88
2022-11-27T06:25:38.810Z,3.94
2022-11-27T06:28:07.218Z,3.94
2022-11-27T06:30:37.866Z,3.95
2022-11-27T06:33:06.012Z,3.98
2022-11-27T06:35:34.300Z,3.96
2022-11-27T06:38:02.728Z,4.01
2022-11-27T06:40:30.779Z,4.07
2022-11-27T06:42:59.029Z,4.10
2022-11-27T06:45:27.417Z,4.12
2022-11-27T06:47:55.533Z,4.14
2022-11-27T06:50:23.846Z,4.16
2022-11-27T06:52:52.199Z,4.15
2022-11-27T06:55:20.383Z,4.16
2022-11-27T06:57:51.306Z,4.14
2022-11-27T07:00:22.816Z,4.17
2022-11-27T07:02:54.366Z,4.20
2022-11-27T07:05:24.455Z,4.17
2022-11-27T07:07:52.913Z,4.19
2022-11-27T07:10:21.066Z,4.20
2022-11-27T07:12:49.695Z,4.16
2022-11-27T07:15:17.774Z,4.14
2022-11-27T07:17:45.842Z,4.19
2022-11-27T07:20:14.754Z,4.13
2022-11-27T07:22:42.824Z,4.16
2022-11-27T07:25:10.987Z,4.19
2022-11-27T07:27:39.918Z,4.27
2022-11-27T07:30:08.714Z,4.27
2022-11-27T07:32:36.947Z,4.33
2022-11-27T07:35:05.895Z,4.32
2022-11-27T07:37:34.202Z,4.25
2022-11-27T07:40:03.580Z,4.25
2022-11-27T07:42:39.637Z,4.30
2022-11-27T07:45:09.037Z,4.35
2022-11-27T07:47:38.074Z,4.35
2022-11-27T07:50:10.595Z,4.38
2022-11-27T07:52:41.976Z,4.40
2022-11-27T07:55:10.919Z,4.42
2022-11-27T07:57:39.703Z,4.39
2022-11-27T08:00:08.682Z,4.44
2022-11-27T08:02:37.274Z,4.45
2022-11-27T08:05:10.955Z,4.50
2022-11-27T08:07:41.661Z,4.48
2022-11-27T08:10:10.727Z,4.49
2022-11-27T08:12:38.877Z,4.57
2022-11-27T08:15:07.936Z,4.57
2022-11-27T08:17:36.529Z,4.63
2022-11-27T08:20:07.223Z,4.70
2022-11-27T08:22:36.502Z,4.76
2022-11-27T08:25:04.979Z,4.76
2022-11-27T08:27:33.571Z,4.79
2022-11-27T08:30:02.733Z,4.78
2022-11-27T08:32:33.929Z,4.80
2022-11-27T08:35:02.899Z,4.81
2022-11-27T08:37:31.157Z,4.80
2022-11-27T08:39:59.493Z,4.84
2022-11-27T08:42:27.905Z,4.85
2022-11-27T08:44:56.098Z,4.90
2022-11-27T08:47:24.445Z,4.92
2022-11-27T08:49:55.849Z,4.92
2022-11-27T08:52:23.985Z,4.97
2022-11-27T08:54:57.360Z,5.00
2022-11-27T08:57:25.905Z,4.99
2022-11-27T08:59:55.450Z,5.00
2022-11-27T09:02:23.580Z,5.02
2022-11-27T09:04:51.636Z,5.03
2022-11-27T09:07:20.131Z,5.04
2022-11-27T09:09:48.669Z,5.08
2022-11-27T09:12:16.834Z,5.12
2022-11-27T09:14:45.487Z,5.08
2022-11-27T09:17:13.590Z,5.10
2022-11-27T09:19:42.185Z,5.07
2022-11-27T09:22:10.578Z,5.15
2022-11-27T09:24:39.458Z,5.17
2022-11-27T09:27:08.053Z,5.15
2022-11-27T09:29:38.283Z,5.17
2022-11-27T09:32:06.620Z,5.20
2022-11-27T09:34:37.486Z,5.16
2022-11-27T09:37:06.235Z,5.13
2022-11-27T09:39:34.382Z,5.23
2022-11-27T09:42:06.074Z,5.19
2022-11-27T09:44:45.349Z,5.19
2022-11-27T09:47:44.405Z,5.18
2022-11-27T09:50:13.618Z,5.21
2022-11-27T09:52:49.510Z,5.19
2022-11-27T09:55:26.753Z,5.13
2022-11-27T09:58:16.273Z,5.15
2022-11-27T10:00:46.103Z,5.13
2022-11-27T10:03:25.351Z,5.14
2022-11-27T10:06:29.752Z,5.14
2022-11-27T10:09:22.097Z,5.13
2022-11-27T10:12:05.255Z,5.10
2022-11-27T10:14:47.518Z,5.05
2022-11-27T10:17:28.801Z,5.08
2022-11-27T10:20:30.218Z,5.12
2022-11-27T10:23:37.767Z,5.07
2022-11-27T10:26:17.526Z,5.08
2022-11-27T10:29:09.613Z,5.07
2022-11-27T10:31:50.731Z,5.13
2022-11-27T10:34:30.991Z,5.13
2022-11-27T10:37:06.145Z,5.15
2022-11-27T10:39:42.714Z,5.15
2022-11-27T10:42:24.585Z,5.15
2022-11-27T10:45:02.445Z,5.19
2022-11-27T10:47:33.942Z,5.17
2022-11-27T10:50:14.232Z,5.14
2022-11-27T10:52:59.955Z,5.13
2022-11-27T10:55:40.287Z,5.13
2022-11-27T10:58:24.140Z,5.10
2022-11-27T11:01:07.458Z,5.10
2022-11-27T11:03:37.093Z,5.13
2022-11-27T11:06:22.820Z,5.05
2022-11-27T11:09:13.322Z,5.09
2022-11-27T11:11:42.318Z,5.17
2022-11-27T11:14:26.248Z,5.15
2022-11-27T11:16:55.108Z,5.13
2022-11-27T11:19:32.415Z,5.14
2022-11-27T11:22:07.264Z,5.18
2022-11-27T11:24:42.956Z,5.24
2022-11-27T11:27:17.461Z,5.24
2022-11-27T11:29:55.829Z,5.23
2022-11-27T11:32:36.193Z,5.23
2022-11-27T11:35:04.697Z,5.18
2022-11-27T11:37:35.932Z,5.08
2022-11-27T11:40:16.253Z,5.14
2022-11-27T11:42:54.145Z,5.19
2022-11-27T11:45:24.408Z,5.18
2022-11-27T11:48:37.709Z,5.20
2022-11-27T11:51:16.573Z,5.26
2022-11-27T11:53:57.562Z,5.10
2022-11-27T11:56:33.017Z,5.13
2022-11-27T11:59:22.031Z,5.22
2022-11-27T12:02:00.959Z,5.26
2022-11-27T12:04:44.870Z,5.34
2022-11-27T12:07:18.842Z,5.25
2022-11-27T12:10:18.567Z,5.18
2022-11-27T12:13:33.148Z,5.22
2022-11-27T12:16:03.459Z,5.31
2022-11-27T12:18:56.800Z,5.34
2022-11-27T12:21:44.960Z,5.33
2022-11-27T12:24:15.551Z,5.43
2022-11-27T12:27:17.574Z,5.43
2022-11-27T12:29:50.566Z,5.42
2022-11-27T12:32:27.749Z,5.30
2022-11-27T12:35:08.043Z,5.33
2022-11-27T12:37:58.336Z,5.27
2022-11-27T12:40:54.604Z,5.36
2022-11-27T12:43:27.868Z,5.39
2022-11-27T12:46:14.902Z,5.36
2022-11-27T12:49:10.159Z,5.34
2022-11-27T12:51:49.203Z,5.32
2022-11-27T12:54:25.653Z,5.31
2022-11-27T12:56:58.726Z,5.32
2022-11-27T12:59:49.002Z,5.38
2022-11-27T13:02:27.124Z,5.38
2022-11-27T13:05:14.243Z,5.36
2022-11-27T13:07:48.268Z,5.40
2022-11-27T13:10:24.270Z,5.38
2022-11-27T13:13:19.665Z,5.36
2022-11-27T13:16:04.195Z,5.37
2022-11-27T13:18:44.686Z,5.34
2022-11-27T13:21:18.448Z,5.33
2022-11-27T13:23:46.801Z,5.36
2022-11-27T13:26:38.633Z,5.30
2022-11-27T13:29:31.391Z,5.34
2022-11-27T13:32:02.982Z,5.29
2022-11-27T13:34:34.076Z,5.35
2022-11-27T13:37:08.396Z,5.35
2022-11-27T13:39:42.730Z,5.33
2022-11-27T13:42:11.222Z,5.33
2022-11-27T13:44:45.447Z,5.32
2022-11-27T13:47:17.378Z,5.32
2022-11-27T13:49:46.528Z,5.30
2022-11-27T13:52:19.054Z,5.28
2022-11-27T13:54:56.082Z,5.31
2022-11-27T13:57:26.440Z,5.30
2022-11-27T14:00:02.779Z,5.30
2022-11-27T14:02:50.280Z,5.30
2022-11-27T14:05:21.059Z,5.30
2022-11-27T14:07:56.221Z,5.28
2022-11-27T14:10:29.399Z,5.25
2022-11-27T14:13:09.972Z,5.28
2022-11-27T14:15:38.659Z,5.28
2022-11-27T14:18:18.420Z,5.24
2022-11-27T14:20:53.662Z,5.25
2022-11-27T14:23:49.196Z,5.25
2022-11-27T14:26:23.703Z,5.27
2022-11-27T14:28:54.265Z,5.27
2022-11-27T14:31:31.091Z,5.27
2022-11-27T14:34:23.145Z,5.28
2022-11-27T14:36:54.020Z,5.28
2022-11-27T14:39:34.138Z,5.23
2022-11-27T14:42:05.060Z,5.21
2022-11-27T14:44:34.522Z,5.22
2022-11-27T14:47:06.992Z,5.20
2022-11-27T14:49:35.736Z,5.18
2022-11-27T14:52:13.375Z,5.21
2022-11-27T14:54:44.676Z,5.22
2022-11-27T14:57:32.121Z,5.21
2022-11-27T15:00:24.248Z,5.21
2022-11-27T15:02:54.282Z,5.18
2022-11-27T15:05:28.819Z,5.18
2022-11-27T15:07:58.860Z,5.17
2022-11-27T15:10:32.576Z,5.18
2022-11-27T15:13:04.242Z,5.16
2022-11-27T15:15:42.030Z,5.18
2022-11-27T15:18:22.585Z,5.13
2022-11-27T15:20:52.049Z,5.11
2022-11-27T15:23:28.154Z,5.12
2022-11-27T15:25:59.227Z,5.10
2022-11-27T15:28:36.422Z,5.12
2022-11-27T15:31:33.000Z,5.11
2022-11-27T15:34:18.528Z,5.08
2022-11-27T15:36:57.726Z,5.08
2022-11-27T15:39:38.756Z,5.08
2022-11-27T15:42:10.066Z,5.10
2022-11-27T15:44:39.091Z,5.07
2022-11-27T15:47:21.773Z,5.07
2022-11-27T15:49:52.131Z,5.05
2022-11-27T15:52:24.232Z,5.04
2022-11-27T15:54:53.085Z,5.00
2022-11-27T15:57:21.366Z,4.99
2022-11-27T15:59:49.814Z,4.98
2022-11-27T16:02:18.642Z,4.98
2022-11-27T16:04:47.036Z,5.00
2022-11-27T16:07:15.695Z,4.96
2022-11-27T16:09:44.329Z,4.98
2022-11-27T16:12:12.765Z,4.95
2022-11-27T16:14:41.525Z,4.97
2022-11-27T16:17:09.730Z,4.97
2022-11-27T16:19:38.218Z,4.98
2022-11-27T16:22:07.710Z,4.98
2022-11-27T16:24:36.091Z,4.98
2022-11-27T16:27:04.907Z,4.94
2022-11-27T16:29:37.074Z,4.95
2022-11-27T16:32:06.125Z,4.92
2022-11-27T16:34:36.113Z,4.92
2022-11-27T16:37:04.856Z,4.92
2022-11-27T16:39:33.592Z,4.92
2022-11-27T16:42:02.042Z,4.92
2022-11-27T16:44:30.463Z,4.82
2022-11-27T16:46:59.391Z,4.83
2022-11-27T16:49:27.769Z,4.84
2022-11-27T16:51:57.432Z,4.82
2022-11-27T16:54:26.366Z,4.85
2022-11-27T16:56:55.789Z,4.83
2022-11-27T16:59:24.477Z,4.79
2022-11-27T17:01:53.631Z,4.85
2022-11-27T17:04:22.036Z,4.82
2022-11-27T17:06:50.772Z,4.86
2022-11-27T17:09:19.306Z,4.88
2022-11-27T17:11:48.925Z,4.89
2022-11-27T17:14:20.584Z,4.89
2022-11-27T17:16:50.970Z,4.91
2022-11-27T17:19:19.979Z,4.89
2022-11-27T17:21:48.505Z,4.89
2022-11-27T17:24:17.733Z,4.89
2022-11-27T17:26:47.971Z,4.87
2022-11-27T17:29:21.708Z,4.86
2022-11-27T17:31:51.322Z,4.90
2022-11-27T17:34:21.080Z,4.89
2022-11-27T17:36:53.830Z,4.92
2022-11-27T17:39:22.694Z,4.92
2022-11-27T17:41:51.292Z,4.89
2022-11-27T17:44:19.600Z,4.91
2022-11-27T17:46:50.562Z,4.89
2022-11-27T17:49:22.293Z,4.90
2022-11-27T17:51:51.525Z,4.85
2022-11-27T17:54:20.320Z,4.86
2022-11-27T17:56:51.471Z,4.86
2022-11-27T17:59:21.178Z,4.84
2022-11-27T18:01:51.424Z,4.81
2022-11-27T18:04:20.951Z,4.80
2022-11-27T18:06:50.546Z,4.79
2022-11-27T18:09:18.886Z,4.76
2022-11-27T18:11:48.973Z,4.76
2022-11-27T18:14:18.759Z,4.74
2022-11-27T18:16:47.586Z,4.74
2022-11-27T18:19:16.275Z,4.69
2022-11-27T18:21:44.860Z,4.62
2022-11-27T18:24:28.957Z,4.56
2022-11-27T18:27:08.317Z,4.46
2022-11-27T18:29:39.261Z,4.53
2022-11-27T18:32:09.572Z,4.56
2022-11-27T18:34:38.326Z,4.55
2022-11-27T18:37:07.396Z,4.57
2022-11-27T18:39:36.994Z,4.58
2022-11-27T18:42:06.859Z,4.49
2022-11-27T18:44:41.148Z,4.54
2022-11-27T18:47:14.323Z,4.51
2022-11-27T18:49:43.407Z,4.50
2022-11-27T18:52:12.289Z,4.55
2022-11-27T18:54:41.791Z,4.46
2022-11-27T18:57:11.308Z,4.46
2022-11-27T18:59:43.530Z,4.41
2022-11-27T19:02:13.529Z,4.41
2022-11-27T19:04:44.292Z,4.39
2022-11-27T19:07:14.181Z,4.41
2022-11-27T19:09:43.738Z,4.46
2022-11-27T19:12:13.847Z,4.47
2022-11-27T19:14:42.604Z,4.49
2022-11-27T19:17:11.128Z,4.49
2022-11-27T19:19:55.493Z,4.48
2022-11-27T19:22:24.257Z,4.45
2022-11-27T19:24:53.943Z,4.26
2022-11-27T19:27:22.313Z,4.24
2022-11-27T19:29:51.729Z,4.27
2022-11-27T19:32:20.797Z,4.21
2022-11-27T19:34:50.526Z,4.21
2022-11-27T19:37:33.595Z,4.23
2022-11-27T19:40:06.499Z,4.17
2022-11-27T19:42:35.860Z,4.22
2022-11-27T19:45:04.825Z,4.31
2022-11-27T19:47:34.109Z,4.30
2022-11-27T19:50:03.890Z,4.33
2022-11-27T19:52:34.274Z,4.34
2022-11-27T19:55:02.976Z,4.36
2022-11-27T19:57:32.614Z,4.37
2022-11-27T20:00:04.155Z,4.39
2022-11-27T20:02:42.755Z,4.41
2022-11-27T20:05:11.724Z,4.44
2022-11-27T20:07:40.307Z,4.42
2022-11-27T20:10:09.460Z,4.45
2022-11-27T20:12:38.618Z,4.47
2022-11-27T20:15:14.301Z,4.48
2022-11-27T20:17:44.154Z,4.47
2022-11-27T20:20:13.447Z,4.46
2022-11-27T20:22:41.934Z,4.49
2022-11-27T20:25:19.552Z,4.51
2022-11-27T20:27:48.557Z,4.52
2022-11-27T20:30:17.597Z,4.49
2022-11-27T20:32:47.416Z,4.46
2022-11-27T20:35:16.307Z,4.45
2022-11-27T20:37:45.475Z,4.43
2022-11-27T20:40:15.562Z,4.40
2022-11-27T20:42:43.857Z,4.39
2022-11-27T20:45:16.287Z,4.36
2022-11-27T20:47:48.896Z,4.35
2022-11-27T20:50:17.562Z,4.35
2022-11-27T20:52:47.096Z,4.24
2022-11-27T20:55:15.396Z,4.28
2022-11-27T20:57:44.644Z,4.33
2022-11-27T21:00:13.344Z,4.24
2022-11-27T21:02:42.446Z,4.24
2022-11-27T21:05:11.357Z,4.29
2022-11-27T21:07:42.423Z,4.30
2022-11-27T21:10:17.742Z,4.23
2022-11-27T21:12:46.153Z,4.27
2022-11-27T21:15:14.579Z,4.33
2022-11-27T21:17:43.100Z,4.37
2022-11-27T21:20:11.809Z,4.34
2022-11-27T21:22:42.938Z,4.32
2022-11-27T21:25:11.556Z,4.30
2022-11-27T21:27:40.216Z,4.29
2022-11-27T21:30:09.289Z,4.23
2022-11-27T21:32:37.982Z,4.28
2022-11-27T21:35:06.564Z,4.18
2022-11-27T21:37:35.417Z,4.19
2022-11-27T21:40:06.767Z,4.12
2022-11-27T21:42:38.186Z,4.06
2022-11-27T21:45:09.562Z,4.10
2022-11-27T21:47:38.538Z,4.13
2022-11-27T21:50:07.747Z,4.15
2022-11-27T21:52:39.950Z,4.18
2022-11-27T21:55:11.964Z,4.19
2022-11-27T21:57:40.547Z,4.13
2022-11-27T22:00:09.282Z,4.08
2022-11-27T22:02:40.600Z,4.14
2022-11-27T22:05:09.396Z,4.12
2022-11-27T22:07:37.629Z,4.13
2022-11-27T22:10:08.331Z,4.07
2022-11-27T22:12:36.973Z,4.06
2022-11-27T22:15:05.510Z,4.14
2022-11-27T22:17:33.791Z,4.13
2022-11-27T22:20:05.081Z,4.19
2022-11-27T22:22:33.742Z,4.16
2022-11-27T22:25:04.312Z,4.11
2022-11-27T22:27:32.660Z,4.01
2022-11-27T22:30:00.836Z,4.06
2022-11-27T22:32:29.559Z,4.06
2022-11-27T22:34:57.923Z,4.08
2022-11-27T22:37:26.034Z,4.13
2022-11-27T22:39:54.436Z,4.15
2022-11-27T22:42:22.955Z,4.17
2022-11-27T22:44:51.198Z,4.17
2022-11-27T22:47:19.703Z,4.18
2022-11-27T22:49:48.550Z,4.18
2022-11-27T22:52:18.156Z,4.18
2022-11-27T22:54:46.552Z,4.21
2022-11-27T22:57:14.937Z,4.19
2022-11-27T22:59:44.293Z,4.20
2022-11-27T23:02:12.655Z,4.19
2022-11-27T23:04:41.402Z,4.21
2022-11-27T23:07:10.156Z,4.19
2022-11-27T23:09:42.468Z,4.18
2022-11-27T23:12:10.745Z,4.25
2022-11-27T23:14:39.747Z,4.21
2022-11-27T23:17:07.997Z,4.23
2022-11-27T23:19:36.768Z,4.27
2022-11-27T23:22:05.071Z,4.27
2022-11-27T23:24:33.119Z,4.30
2022-11-27T23:27:01.405Z,4.30
2022-11-27T23:29:29.729Z,4.28
2022-11-27T23:31:57.981Z,4.28
2022-11-27T23:34:26.259Z,4.27
2022-11-27T23:36:54.596Z,4.28
2022-11-27T23:39:22.953Z,4.29
2022-11-27T23:41:51.303Z,4.23
2022-11-27T23:44:20.927Z,4.19
2022-11-27T23:46:49.876Z,4.17
2022-11-27T23:49:19.011Z,4.21
2022-11-27T23:51:48.218Z,4.15
2022-11-27T23:54:16.335Z,4.18
2022-11-27T23:56:44.616Z,4.15
2022-11-27T23:59:13.037Z,4.16
